createdAt,value
2019-05-23T00:03:07.088Z,9.60
2019-05-23T00:13:46.638Z,8.20
2019-05-23T00:23:58.312Z,11.27
2019-05-23T00:34:07.337Z,10.03
2019-05-23T00:44:13.468Z,11.30
2019-05-23T00:54:21.550Z,8.93
2019-05-23T01:04:29.331Z,13.67
2019-05-23T01:14:35.219Z,8.60
2019-05-23T01:24:45.005Z,10.17
2019-05-23T01:34:53.269Z,7.43
2019-05-23T01:45:03.073Z,7.50
2019-05-23T01:55:11.103Z,7.30
2019-05-23T02:05:21.345Z,7.23
2019-05-23T02:15:28.715Z,7.20
2019-05-23T02:25:35.574Z,7.03
2019-05-23T02:35:45.162Z,8.33
2019-05-23T02:45:55.767Z,8.33
2019-05-23T02:56:06.045Z,9.17
2019-05-23T03:06:21.109Z,10.17
2019-05-23T03:16:31.758Z,8.20
2019-05-23T03:27:17.048Z,8.73
2019-05-23T03:37:26.025Z,14.03
2019-05-23T03:47:32.553Z,9.63
2019-05-23T03:57:40.313Z,10.07
2019-05-23T04:07:46.519Z,9.00
2019-05-23T04:17:52.651Z,10.23
2019-05-23T04:28:00.172Z,11.07
2019-05-23T04:38:07.230Z,10.77
2019-05-23T04:48:16.038Z,13.33
2019-05-23T04:58:24.981Z,10.53
2019-05-23T05:08:31.032Z,9.27
2019-05-23T05:18:38.405Z,13.57
2019-05-23T05:28:46.791Z,8.60
2019-05-23T05:38:54.192Z,12.33
2019-05-23T05:49:04.311Z,10.97
2019-05-23T05:59:11.819Z,9.23
2019-05-23T06:09:27.016Z,9.50
2019-05-23T06:19:35.877Z,18.40
2019-05-23T06:29:43.990Z,5.60
2019-05-23T06:40:00.386Z,6.58
2019-05-23T06:50:24.402Z,7.55
2019-05-23T07:00:32.249Z,6.85
2019-05-23T07:10:41.839Z,5.00
2019-05-23T07:20:51.662Z,5.72
2019-05-23T07:31:02.105Z,8.95
2019-05-23T07:41:09.774Z,8.43
2019-05-23T07:51:30.195Z,8.70
2019-05-23T08:01:50.012Z,10.28
2019-05-23T08:11:58.845Z,6.85
2019-05-23T08:22:07.141Z,6.90
2019-05-23T08:32:15.703Z,5.40
2019-05-23T08:42:23.878Z,5.23
2019-05-23T08:52:35.295Z,5.63
2019-05-23T09:02:46.475Z,10.27
2019-05-23T09:12:53.715Z,6.97
2019-05-23T09:23:00.491Z,6.10
2019-05-23T09:33:09.765Z,5.93
2019-05-23T09:43:20.858Z,4.77
2019-05-23T09:53:29.792Z,6.70
2019-05-23T10:03:40.251Z,5.03
2019-05-23T10:13:48.106Z,6.90
2019-05-23T10:23:59.151Z,8.20
2019-05-23T10:34:06.594Z,8.37
2019-05-23T10:44:20.074Z,17.93
2019-05-23T10:54:27.642Z,15.03
2019-05-23T11:04:36.336Z,15.80
2019-05-23T11:14:43.600Z,20.07
2019-05-23T11:24:52.801Z,15.03
2019-05-23T11:34:59.900Z,13.73
2019-05-23T11:45:07.619Z,9.50
2019-05-23T11:55:17.581Z,12.37
2019-05-23T12:05:29.981Z,13.63
2019-05-23T12:15:37.853Z,18.20
2019-05-23T12:25:48.749Z,11.23
2019-05-23T12:35:56.349Z,14.53
2019-05-23T12:46:06.083Z,15.70
2019-05-23T12:56:15.542Z,25.80
2019-05-23T13:06:24.291Z,22.27
2019-05-23T13:16:31.033Z,21.30
2019-05-23T13:26:39.191Z,24.83
2019-05-23T13:36:47.301Z,20.70
2019-05-23T13:46:56.632Z,21.17
2019-05-23T13:57:05.440Z,21.10
2019-05-23T14:18:21.223Z,28.40
2019-05-23T14:28:29.369Z,27.23
2019-05-23T14:38:37.092Z,27.73
2019-05-23T14:48:53.882Z,29.50
2019-05-23T14:59:00.288Z,29.00
2019-05-23T15:09:11.936Z,26.47
2019-05-23T15:19:39.131Z,26.50
2019-05-23T15:29:35.575Z,24.67
2019-05-23T15:39:48.525Z,23.33
2019-05-23T15:50:06.188Z,24.00
2019-05-23T16:00:25.513Z,21.50
2019-05-23T16:10:34.381Z,23.03
2019-05-23T16:20:47.186Z,23.70
2019-05-23T16:30:53.568Z,24.33
2019-05-23T16:41:00.746Z,23.83
2019-05-23T16:51:08.076Z,22.83
2019-05-23T17:01:56.014Z,21.30
2019-05-23T17:12:10.988Z,21.77
2019-05-23T17:22:40.346Z,20.00
2019-05-23T17:32:51.524Z,19.23
2019-05-23T17:42:58.117Z,20.70
2019-05-23T17:53:08.455Z,18.87
2019-05-23T18:03:15.349Z,19.90
2019-05-23T18:13:24.353Z,22.93
2019-05-23T18:23:32.213Z,23.33
2019-05-23T18:33:39.430Z,26.87
2019-05-23T18:43:47.084Z,25.03
2019-05-23T18:53:55.036Z,21.47
2019-05-23T19:04:01.751Z,26.47
2019-05-23T19:14:07.929Z,23.97
2019-05-23T19:24:14.993Z,25.23
2019-05-23T19:34:22.794Z,31.07
2019-05-23T19:44:31.519Z,23.60
2019-05-23T19:54:39.612Z,21.77
2019-05-23T20:04:54.037Z,24.37
2019-05-23T20:15:01.266Z,22.90
2019-05-23T20:25:12.520Z,21.63
2019-05-23T20:35:18.585Z,23.90
2019-05-23T20:45:26.354Z,20.67
2019-05-23T20:55:32.894Z,19.93
2019-05-23T21:05:39.949Z,17.70
2019-05-23T21:15:47.446Z,21.07
2019-05-23T21:25:59.354Z,20.43
2019-05-23T21:36:06.574Z,22.37
2019-05-23T21:46:14.848Z,24.50
2019-05-23T21:56:21.603Z,23.47
2019-05-23T22:06:32.870Z,20.40
2019-05-23T22:16:41.393Z,20.70
2019-05-23T22:26:48.860Z,23.43
2019-05-23T22:36:54.736Z,21.33
2019-05-23T22:47:04.288Z,19.77
2019-05-23T22:57:10.998Z,16.77
2019-05-23T23:07:21.013Z,19.07
2019-05-23T23:17:27.528Z,17.43
2019-05-23T23:27:34.204Z,18.90
2019-05-23T23:37:42.002Z,26.70
2019-05-23T23:48:08.955Z,12.60
2019-05-23T23:58:16.726Z,11.33
